Time;durP1;ratioP1;P1;durP2;ratioP2;P2;SDS_P1;SDS_P2;PMS_P1;PMS_P2;Temp;Humidity;BMP_temperature;BMP_pressure;BME280_temperature;BME280_humidity;BME280_pressure;Samples;Min_cycle;Max_cycle;Signal;HPM_P1;HPM_P2
2022/03/14 00:00:21;;;;;;;16.20;10.52;;;10.10;66.60;;;;;;5066322;28;20080;-71
2022/03/14 00:02:48;;;;;;;16.58;10.50;;;10.10;66.60;;;;;;5067177;28;20336;-71
2022/03/14 00:05:15;;;;;;;15.82;11.02;;;11.10;67.50;;;;;;5068028;28;20485;-71
2022/03/14 00:07:49;;;;;;;15.43;10.20;;;10.00;67.20;;;;;;5067487;28;20067;-71
2022/03/14 00:10:17;;;;;;;16.27;10.38;;;10.60;67.90;;;;;;5068456;28;20537;-71
2022/03/14 00:12:43;;;;;;;16.15;10.10;;;9.90;68.10;;;;;;5066094;28;20481;-71
2022/03/14 00:15:11;;;;;;;15.75;11.00;;;9.90;68.20;;;;;;5048085;28;20101;-72
2022/03/14 00:17:39;;;;;;;13.70;10.00;;;9.80;68.40;;;;;;5066411;28;20571;-71
2022/03/14 00:20:07;;;;;;;14.10;9.68;;;9.90;69.00;;;;;;5070116;28;20409;-71
2022/03/14 00:22:32;;;;;;;15.85;9.88;;;9.90;69.60;;;;;;5065747;28;20042;-71
2022/03/14 00:24:58;;;;;;;18.98;10.38;;;10.00;69.50;;;;;;5067325;28;20045;-72
2022/03/14 00:27:24;;;;;;;16.85;10.80;;;10.00;70.00;;;;;;5068102;28;20043;-71
2022/03/14 00:29:49;;;;;;;17.50;10.65;;;10.00;70.50;;;;;;5069856;28;20052;-71
2022/03/14 00:32:15;;;;;;;23.75;10.85;;;10.40;71.00;;;;;;5067196;28;20048;-71
2022/03/14 00:34:41;;;;;;;15.48;10.68;;;10.10;71.20;;;;;;5065527;28;20044;-72
2022/03/14 00:37:06;;;;;;;16.17;10.65;;;10.10;71.50;;;;;;5067975;28;20040;-71
2022/03/14 00:39:32;;;;;;;15.93;10.68;;;10.10;72.00;;;;;;5067232;28;20077;-72
2022/03/14 00:41:58;;;;;;;16.30;10.32;;;10.50;72.70;;;;;;5066014;28;20037;-72
2022/03/14 00:44:23;;;;;;;16.83;10.98;;;10.20;73.20;;;;;;5067045;28;20042;-72
2022/03/14 00:46:50;;;;;;;14.45;10.18;;;10.80;74.00;;;;;;5066837;28;20053;-72
2022/03/14 00:49:15;;;;;;;15.52;11.20;;;10.10;74.00;;;;;;5066111;28;20099;-72
2022/03/14 00:51:41;;;;;;;15.70;10.30;;;10.10;74.60;;;;;;5067002;28;20037;-72
2022/03/14 00:54:07;;;;;;;15.27;10.10;;;10.10;76.70;;;;;;5066732;28;20544;-71
2022/03/14 00:56:35;;;;;;;12.98;9.90;;;10.20;78.10;;;;;;5067081;28;20067;-72
2022/03/14 00:59:02;;;;;;;15.02;10.52;;;10.20;78.50;;;;;;5067107;28;20136;-71
2022/03/14 01:01:28;;;;;;;14.88;10.23;;;10.30;82.50;;;;;;5063636;28;20037;-71
2022/03/14 01:03:54;;;;;;;13.07;8.88;;;10.30;84.80;;;;;;5058605;28;20048;-71
2022/03/14 01:06:21;;;;;;;13.75;9.63;;;10.40;87.10;;;;;;5050071;28;20080;-71
2022/03/14 01:08:46;;;;;;;14.65;9.52;;;10.50;87.80;;;;;;5067267;28;20051;-71
2022/03/14 01:11:12;;;;;;;15.00;10.10;;;10.60;89.50;;;;;;5068464;28;20036;-71
2022/03/14 01:13:38;;;;;;;18.15;10.20;;;10.60;90.40;;;;;;5065417;28;20477;-72
2022/03/14 01:16:04;;;;;;;15.02;10.02;;;10.70;91.30;;;;;;5067770;28;20040;-71
2022/03/14 01:18:30;;;;;;;17.58;9.73;;;10.70;91.50;;;;;;5065635;28;20040;-72
2022/03/14 01:20:56;;;;;;;13.77;9.85;;;10.70;92.30;;;;;;5066387;28;20071;-71
2022/03/14 01:23:22;;;;;;;12.98;9.07;;;10.80;93.30;;;;;;5066948;28;20143;-71
2022/03/14 01:25:49;;;;;;;14.70;9.60;;;10.80;93.60;;;;;;5049147;28;20067;-72
2022/03/14 01:28:15;;;;;;;13.65;9.40;;;10.80;93.90;;;;;;5069591;28;20044;-71
2022/03/14 01:30:43;;;;;;;13.60;9.73;;;10.80;94.60;;;;;;5064998;28;20362;-71
2022/03/14 01:33:09;;;;;;;12.88;9.27;;;10.80;95.00;;;;;;5066189;28;20094;-71
2022/03/14 01:35:37;;;;;;;14.00;9.45;;;10.80;95.50;;;;;;5067075;28;20045;-71
2022/03/14 01:38:03;;;;;;;15.55;9.70;;;10.70;95.70;;;;;;5066655;28;20489;-71
2022/03/14 01:40:29;;;;;;;14.30;10.00;;;10.70;96.20;;;;;;5070233;28;20055;-71
2022/03/14 01:42:55;;;;;;;16.15;9.05;;;11.70;96.80;;;;;;5070369;28;20041;-71
2022/03/14 01:45:22;;;;;;;13.15;9.38;;;10.70;96.70;;;;;;5071858;28;20067;-71
2022/03/14 01:47:49;;;;;;;14.85;10.15;;;10.70;97.30;;;;;;5067566;28;20040;-71
2022/03/14 01:50:15;;;;;;;13.43;9.40;;;10.80;97.80;;;;;;5071197;28;20550;-71
2022/03/14 01:52:42;;;;;;;14.88;9.57;;;10.80;98.30;;;;;;5070505;28;20053;-71
2022/03/14 01:55:09;;;;;;;12.73;9.40;;;11.80;98.80;;;;;;5071008;28;20059;-71
2022/03/14 01:57:35;;;;;;;14.20;9.77;;;10.80;98.60;;;;;;5070102;28;20056;-71
2022/03/14 02:00:02;;;;;;;13.85;9.07;;;10.80;99.00;;;;;;5070940;28;20048;-71
2022/03/14 02:02:27;;;;;;;13.30;9.52;;;10.80;99.00;;;;;;5070153;28;20040;-71
2022/03/14 02:04:53;;;;;;;15.05;9.30;;;11.70;99.70;;;;;;5069798;28;20350;-71
2022/03/14 02:07:20;;;;;;;13.10;9.52;;;10.70;99.60;;;;;;5069408;28;20194;-70
2022/03/14 02:09:46;;;;;;;15.68;9.20;;;10.70;99.70;;;;;;5070652;28;20219;-71
2022/03/14 02:12:12;;;;;;;13.48;9.27;;;10.70;99.70;;;;;;5069596;28;20120;-71
2022/03/14 02:14:41;;;;;;;13.82;9.35;;;10.60;99.90;;;;;;5069460;28;20071;-71
2022/03/14 02:17:16;;;;;;;12.63;9.13;;;10.60;99.90;;;;;;5070162;28;20037;-71
2022/03/14 02:19:42;;;;;;;13.15;9.35;;;10.60;99.90;;;;;;5067470;28;20067;-71
2022/03/14 02:22:12;;;;;;;13.88;9.02;;;10.90;99.90;;;;;;5064950;28;20185;-71
2022/03/14 02:24:42;;;;;;;13.73;9.38;;;10.50;99.90;;;;;;5070616;28;20048;-71
2022/03/14 02:27:08;;;;;;;12.52;9.38;;;10.60;99.90;;;;;;5068429;28;20048;-72
2022/03/14 02:29:34;;;;;;;11.30;8.55;;;11.50;99.90;;;;;;5069818;28;20045;-71
2022/03/14 02:32:00;;;;;;;12.73;8.80;;;10.50;99.90;;;;;;5070080;28;20489;-72
2022/03/14 02:34:26;;;;;;;12.15;8.70;;;10.60;99.90;;;;;;5070300;28;20040;-71
2022/03/14 02:36:51;;;;;;;12.77;8.68;;;10.60;99.90;;;;;;5069361;28;20481;-71
2022/03/14 02:39:17;;;;;;;12.25;8.77;;;11.80;99.90;;;;;;5071755;28;20040;-71
2022/03/14 02:41:43;;;;;;;14.40;8.90;;;10.60;99.90;;;;;;5068901;28;20342;-71
2022/03/14 02:44:09;;;;;;;12.55;9.25;;;10.60;99.90;;;;;;5070508;28;20565;-72
2022/03/14 02:46:39;;;;;;;12.75;8.73;;;10.60;99.90;;;;;;5069701;28;20116;-70
2022/03/14 02:49:09;;;;;;;11.65;8.40;;;10.70;99.90;;;;;;5068160;28;20044;-71
2022/03/14 02:51:38;;;;;;;11.55;7.78;;;10.70;99.90;;;;;;5070079;28;20074;-71
2022/03/14 02:54:08;;;;;;;13.80;7.95;;;10.80;99.90;;;;;;5068885;28;20053;-71
2022/03/14 02:56:35;;;;;;;11.95;8.07;;;10.80;99.90;;;;;;5069805;28;20102;-71
2022/03/14 02:59:02;;;;;;;11.02;7.88;;;10.70;99.90;;;;;;5068022;28;20041;-71
2022/03/14 03:01:27;;;;;;;10.50;7.53;;;10.90;99.90;;;;;;5063424;28;20052;-71
2022/03/14 03:03:53;;;;;;;11.23;7.18;;;10.90;99.90;;;;;;5067876;28;20036;-71
2022/03/14 03:06:22;;;;;;;11.15;8.02;;;10.80;99.90;;;;;;5070109;28;20099;-71
2022/03/14 03:08:53;;;;;;;11.43;7.93;;;10.80;99.90;;;;;;5068057;28;20052;-71
2022/03/14 03:11:20;;;;;;;9.60;7.28;;;10.80;99.90;;;;;;5069773;28;20037;-71
2022/03/14 03:13:47;;;;;;;11.93;7.28;;;10.80;99.90;;;;;;5069691;28;20047;-72
2022/03/14 03:16:14;;;;;;;9.10;7.03;;;10.80;99.90;;;;;;5069043;28;20059;-71
2022/03/14 03:18:40;;;;;;;11.45;7.20;;;10.80;99.90;;;;;;5050139;28;20496;-71
2022/03/14 03:21:06;;;;;;;10.40;7.93;;;10.80;99.90;;;;;;5069584;28;20031;-71
2022/03/14 03:23:34;;;;;;;9.60;6.97;;;10.80;99.90;;;;;;5068433;28;20051;-71
2022/03/14 03:26:00;;;;;;;11.20;7.90;;;10.80;99.90;;;;;;5070634;28;20082;-71
2022/03/14 03:28:26;;;;;;;8.98;6.60;;;10.70;99.90;;;;;;5070617;28;20572;-71
2022/03/14 03:30:52;;;;;;;9.20;6.60;;;10.80;99.90;;;;;;5066914;28;20120;-71
2022/03/14 03:33:18;;;;;;;9.25;7.15;;;10.70;99.90;;;;;;5067030;28;20083;-71
2022/03/14 03:35:44;;;;;;;10.32;6.80;;;10.70;99.90;;;;;;5070161;28;20084;-71
2022/03/14 03:38:10;;;;;;;11.05;7.07;;;10.70;99.90;;;;;;5071170;28;20512;-71
2022/03/14 03:40:36;;;;;;;9.45;7.00;;;10.70;99.90;;;;;;5069190;28;20388;-72
2022/03/14 03:43:01;;;;;;;9.68;7.05;;;10.70;99.90;;;;;;5068761;28;20044;-71
2022/03/14 03:45:27;;;;;;;11.25;6.97;;;10.70;99.90;;;;;;5067407;28;20041;-71
2022/03/14 03:47:54;;;;;;;9.68;7.00;;;10.60;99.90;;;;;;5067992;28;20159;-71
2022/03/14 03:50:20;;;;;;;9.38;7.05;;;10.60;99.90;;;;;;5067957;28;20446;-71
2022/03/14 03:52:45;;;;;;;11.52;7.13;;;10.50;99.90;;;;;;5066688;28;20047;-71
2022/03/14 03:55:11;;;;;;;10.05;6.88;;;10.60;99.90;;;;;;5069577;28;20064;-71
2022/03/14 03:57:37;;;;;;;10.48;7.50;;;10.50;99.90;;;;;;5065872;28;20504;-71
2022/03/14 04:00:04;;;;;;;9.95;7.28;;;10.50;99.90;;;;;;5069189;28;20168;-71
2022/03/14 04:02:35;;;;;;;9.68;6.95;;;10.50;99.90;;;;;;5047683;28;20072;-71
2022/03/14 04:05:01;;;;;;;10.88;7.50;;;10.70;99.90;;;;;;5066586;28;20049;-71
2022/03/14 04:07:27;;;;;;;9.80;7.75;;;10.40;99.90;;;;;;5069427;28;20059;-71
2022/03/14 04:09:56;;;;;;;10.10;7.30;;;10.50;99.90;;;;;;5068504;28;20123;-71
2022/03/14 04:12:26;;;;;;;10.52;7.55;;;10.40;99.90;;;;;;5067188;28;20056;-71
2022/03/14 04:14:58;;;;;;;12.23;8.10;;;10.40;99.90;;;;;;5068736;28;20055;-71
2022/03/14 04:17:25;;;;;;;10.35;7.30;;;10.30;99.90;;;;;;5047863;28;20045;-71
2022/03/14 04:19:52;;;;;;;9.80;7.00;;;10.30;99.90;;;;;;5056080;28;20037;-71
2022/03/14 04:22:21;;;;;;;12.10;7.35;;;10.30;99.90;;;;;;5048092;28;20106;-71
2022/03/14 04:24:47;;;;;;;9.25;7.07;;;10.30;99.90;;;;;;5055160;28;20047;-71
2022/03/14 04:27:12;;;;;;;10.48;6.47;;;10.30;99.90;;;;;;5068451;28;20397;-71
2022/03/14 04:29:38;;;;;;;9.93;6.72;;;10.30;99.90;;;;;;5066813;28;20116;-71
2022/03/14 04:32:04;;;;;;;7.70;5.82;;;10.30;99.90;;;;;;5067443;28;20449;-70
2022/03/14 04:34:30;;;;;;;8.80;6.60;;;10.30;99.90;;;;;;5065128;28;20097;-70
2022/03/14 04:36:57;;;;;;;9.07;6.28;;;10.30;99.90;;;;;;5068755;28;20060;-71
2022/03/14 04:39:23;;;;;;;8.07;6.00;;;10.30;99.90;;;;;;5067450;28;20056;-71
2022/03/14 04:41:49;;;;;;;8.38;5.95;;;10.20;99.90;;;;;;5066546;28;20230;-71
2022/03/14 04:44:16;;;;;;;8.05;5.75;;;10.30;99.90;;;;;;5067326;28;20040;-72
2022/03/14 04:46:42;;;;;;;7.80;5.70;;;10.30;99.90;;;;;;5067881;28;20051;-70
2022/03/14 04:49:13;;;;;;;7.28;5.30;;;10.30;99.90;;;;;;5069778;28;20040;-70
2022/03/14 04:51:39;;;;;;;7.00;5.57;;;10.30;99.90;;;;;;5066337;28;20051;-71
2022/03/14 04:54:05;;;;;;;7.38;5.65;;;10.30;99.90;;;;;;5066643;28;20056;-70
2022/03/14 04:56:30;;;;;;;8.30;5.18;;;10.30;99.90;;;;;;5049246;28;20485;-71
2022/03/14 04:58:56;;;;;;;7.32;5.45;;;10.30;99.90;;;;;;5066878;28;20396;-70
2022/03/14 05:01:23;;;;;;;8.10;5.22;;;10.30;99.90;;;;;;5067051;28;20073;-70
2022/03/14 05:03:52;;;;;;;6.90;5.03;;;10.20;99.90;;;;;;5048646;28;20057;-71
2022/03/14 05:06:21;;;;;;;6.72;5.00;;;10.20;99.90;;;;;;5070757;28;20501;-70
2022/03/14 05:08:47;;;;;;;7.60;5.05;;;10.20;99.90;;;;;;5066354;28;20044;-70
2022/03/14 05:11:14;;;;;;;5.80;4.75;;;10.30;99.90;;;;;;5068791;28;20041;-71
2022/03/14 05:13:41;;;;;;;7.57;5.20;;;10.30;99.90;;;;;;5066930;28;20055;-71
2022/03/14 05:16:07;;;;;;;6.82;4.75;;;10.30;99.90;;;;;;5071004;28;20394;-71
2022/03/14 05:18:34;;;;;;;6.68;4.65;;;10.30;99.90;;;;;;5070215;28;20127;-71
2022/03/14 05:21:00;;;;;;;7.20;4.90;;;10.30;99.90;;;;;;5071618;28;20049;-72
2022/03/14 05:23:28;;;;;;;6.93;4.90;;;10.30;99.90;;;;;;5071417;28;20044;-70
2022/03/14 05:25:54;;;;;;;7.95;4.85;;;10.30;99.90;;;;;;5072024;28;20045;-70
2022/03/14 05:28:20;;;;;;;7.30;4.53;;;10.30;99.90;;;;;;5070970;28;20362;-71
2022/03/14 05:30:46;;;;;;;6.13;4.50;;;10.30;99.90;;;;;;5056000;28;20033;-72
2022/03/14 05:33:11;;;;;;;6.15;4.32;;;10.30;99.90;;;;;;5067155;28;20462;-71
2022/03/14 05:35:37;;;;;;;6.47;4.35;;;10.30;99.90;;;;;;5068238;28;20120;-72
2022/03/14 05:38:02;;;;;;;5.60;3.90;;;10.30;99.90;;;;;;5069524;28;20070;-71
2022/03/14 05:40:28;;;;;;;7.45;4.35;;;10.30;99.90;;;;;;5071388;28;20125;-72
2022/03/14 05:42:54;;;;;;;6.05;4.15;;;11.10;99.90;;;;;;5068670;28;20048;-72
2022/03/14 05:45:21;;;;;;;5.38;3.65;;;10.30;99.90;;;;;;5072479;28;20404;-72
2022/03/14 05:47:47;;;;;;;5.88;4.45;;;10.30;99.90;;;;;;5068174;28;20459;-72
2022/03/14 05:50:13;;;;;;;6.63;4.40;;;10.40;99.90;;;;;;5071372;28;20093;-72
2022/03/14 05:52:40;;;;;;;7.05;4.07;;;10.40;99.90;;;;;;5068838;28;20493;-71
2022/03/14 05:55:06;;;;;;;5.22;4.15;;;10.40;99.90;;;;;;5069862;28;20051;-72
2022/03/14 05:57:33;;;;;;;5.82;4.13;;;10.30;99.90;;;;;;5070140;28;20365;-72
2022/03/14 05:59:59;;;;;;;7.20;4.20;;;10.30;99.90;;;;;;5050107;28;20178;-72
2022/03/14 06:02:25;;;;;;;5.22;4.15;;;10.40;99.90;;;;;;5060023;28;20141;-72
2022/03/14 06:04:52;;;;;;;5.80;4.13;;;10.40;99.90;;;;;;5068632;28;20055;-72
2022/03/14 06:07:22;;;;;;;5.65;3.95;;;11.50;99.90;;;;;;5070658;28;20500;-72
2022/03/14 06:09:49;;;;;;;6.40;3.92;;;10.30;99.90;;;;;;5070874;28;20048;-72
2022/03/14 06:12:24;;;;;;;5.53;3.58;;;10.30;99.90;;;;;;5070465;28;20049;-72
2022/03/14 06:14:54;;;;;;;6.35;4.20;;;10.30;99.90;;;;;;5070491;28;20568;-72
2022/03/14 06:17:21;;;;;;;6.35;4.25;;;10.30;99.90;;;;;;5069254;28;20059;-72
2022/03/14 06:19:47;;;;;;;5.60;4.00;;;10.40;99.90;;;;;;5072599;28;20049;-72
2022/03/14 06:22:17;;;;;;;5.40;4.00;;;10.30;99.90;;;;;;5071618;28;20075;-72
2022/03/14 06:24:44;;;;;;;5.80;4.20;;;10.30;99.90;;;;;;5072004;28;20110;-72
2022/03/14 06:27:10;;;;;;;5.18;3.75;;;10.30;99.90;;;;;;5069192;28;20060;-73
2022/03/14 06:29:35;;;;;;;6.07;4.47;;;10.20;99.90;;;;;;5051868;28;20048;-71
2022/03/14 06:32:01;;;;;;;5.47;4.00;;;10.30;99.90;;;;;;5060674;28;20120;-73
2022/03/14 06:34:27;;;;;;;5.65;4.28;;;10.50;99.90;;;;;;5070155;28;20462;-72
2022/03/14 06:36:52;;;;;;;6.70;4.10;;;10.20;99.90;;;;;;5067684;28;20048;-73
2022/03/14 06:39:18;;;;;;;5.72;4.10;;;10.20;99.90;;;;;;5069961;28;20048;-72
2022/03/14 06:41:44;;;;;;;6.78;4.32;;;10.30;99.90;;;;;;5051541;28;20184;-72
2022/03/14 06:44:12;;;;;;;6.20;4.25;;;10.70;99.90;;;;;;5051822;28;20044;-72
2022/03/14 06:46:38;;;;;;;5.65;4.28;;;11.10;99.90;;;;;;5068349;28;20130;-72
2022/03/14 06:49:03;;;;;;;6.50;4.00;;;10.20;99.90;;;;;;5068052;28;20135;-71
2022/03/14 06:51:29;;;;;;;8.85;4.13;;;10.20;99.90;;;;;;5069911;28;20135;-71
2022/03/14 06:53:55;;;;;;;5.68;4.30;;;10.30;99.90;;;;;;5068555;28;20081;-71
2022/03/14 06:56:20;;;;;;;5.70;4.30;;;10.30;99.90;;;;;;5070154;28;20123;-71
2022/03/14 06:58:46;;;;;;;5.63;4.38;;;10.20;99.90;;;;;;5067941;28;20550;-71
2022/03/14 07:01:12;;;;;;;6.93;4.43;;;10.20;99.90;;;;;;5067417;28;20493;-71
2022/03/14 07:03:38;;;;;;;5.78;4.15;;;10.20;99.90;;;;;;5064292;28;20498;-72
2022/03/14 07:06:04;;;;;;;6.20;4.40;;;10.30;99.90;;;;;;5068250;28;20051;-72
2022/03/14 07:08:31;;;;;;;6.50;4.70;;;10.30;99.90;;;;;;5067624;28;20044;-72
2022/03/14 07:10:56;;;;;;;6.88;4.93;;;10.20;99.90;;;;;;5068376;28;20048;-71
2022/03/14 07:13:22;;;;;;;6.93;4.45;;;10.20;99.90;;;;;;5067214;28;20407;-71
2022/03/14 07:15:48;;;;;;;6.10;4.53;;;10.20;99.90;;;;;;5068272;28;20403;-72
2022/03/14 07:18:13;;;;;;;5.93;4.70;;;10.20;99.90;;;;;;5067565;28;20041;-72
2022/03/14 07:20:39;;;;;;;6.55;4.50;;;10.20;99.90;;;;;;5065863;28;20048;-71
2022/03/14 07:23:08;;;;;;;6.32;4.80;;;10.10;99.90;;;;;;5064535;28;20048;-73
2022/03/14 07:25:37;;;;;;;6.47;4.95;;;10.10;99.90;;;;;;5067989;28;20047;-72
2022/03/14 07:28:08;;;;;;;7.72;4.75;;;10.10;99.90;;;;;;5068437;28;20040;-72
2022/03/14 07:30:38;;;;;;;7.25;4.63;;;10.20;99.90;;;;;;5066538;28;20445;-72
2022/03/14 07:33:04;;;;;;;7.43;5.05;;;10.10;99.90;;;;;;5069263;28;20044;-72
2022/03/14 07:35:30;;;;;;;7.20;5.20;;;10.10;99.90;;;;;;5069811;28;20119;-72
2022/03/14 07:37:56;;;;;;;8.77;5.03;;;10.20;99.90;;;;;;5066489;28;20545;-72
2022/03/14 07:40:22;;;;;;;6.47;5.07;;;10.10;99.90;;;;;;5070375;28;20043;-72
2022/03/14 07:42:49;;;;;;;8.10;5.65;;;10.20;99.90;;;;;;5068185;28;20505;-72
2022/03/14 07:45:19;;;;;;;6.45;5.07;;;10.20;99.90;;;;;;5066952;28;20048;-73
2022/03/14 07:47:44;;;;;;;7.63;5.22;;;11.10;99.90;;;;;;5065553;28;20366;-73
2022/03/14 07:50:14;;;;;;;7.65;5.50;;;10.20;99.90;;;;;;5068544;28;20110;-73
2022/03/14 07:52:40;;;;;;;7.80;5.40;;;10.20;99.90;;;;;;5067439;28;20098;-72
2022/03/14 07:55:07;;;;;;;7.72;5.50;;;10.20;99.90;;;;;;5068704;28;20053;-72
2022/03/14 07:57:33;;;;;;;7.32;5.68;;;10.10;99.90;;;;;;5067275;28;20048;-73
2022/03/14 07:59:59;;;;;;;7.18;5.13;;;10.10;99.90;;;;;;5060538;28;20045;-70
2022/03/14 08:02:25;;;;;;;7.93;5.78;;;10.10;99.90;;;;;;5045890;28;20067;-73
2022/03/14 08:04:51;;;;;;;8.38;5.80;;;10.00;99.90;;;;;;5057412;28;20054;-71
2022/03/14 08:07:18;;;;;;;7.32;5.50;;;11.10;99.90;;;;;;5067204;28;20209;-70
2022/03/14 08:09:43;;;;;;;8.07;5.55;;;10.00;99.90;;;;;;5066204;28;20049;-73
2022/03/14 08:12:12;;;;;;;7.78;5.82;;;11.10;99.90;;;;;;5068436;28;20049;-70
2022/03/14 08:14:37;;;;;;;7.40;5.60;;;10.10;99.90;;;;;;5049901;28;20537;-72
2022/03/14 08:17:03;;;;;;;11.48;5.82;;;10.10;99.90;;;;;;5066059;28;20462;-72
2022/03/14 08:19:29;;;;;;;7.55;5.65;;;10.10;99.90;;;;;;5065860;28;20193;-71
2022/03/14 08:21:57;;;;;;;8.52;5.90;;;10.10;99.90;;;;;;5067312;28;20044;-72
2022/03/14 08:24:23;;;;;;;8.68;5.85;;;10.10;99.90;;;;;;5066952;28;20098;-71
2022/03/14 08:26:49;;;;;;;8.15;6.07;;;10.10;99.90;;;;;;5066281;28;20296;-71
2022/03/14 08:29:15;;;;;;;8.95;6.07;;;10.00;99.90;;;;;;5067485;28;20040;-71
2022/03/14 08:31:41;;;;;;;9.52;6.00;;;11.00;99.90;;;;;;5064000;28;20048;-71
2022/03/14 08:34:07;;;;;;;7.40;5.70;;;10.10;99.90;;;;;;5050164;28;20067;-72
2022/03/14 08:36:35;;;;;;;9.02;6.13;;;10.10;99.90;;;;;;5067832;28;20059;-72
2022/03/14 08:39:05;;;;;;;8.05;5.75;;;10.10;99.90;;;;;;5066235;28;20853;-71
2022/03/14 08:41:31;;;;;;;8.38;5.82;;;10.20;99.90;;;;;;5065471;28;20039;-71
2022/03/14 08:43:57;;;;;;;8.50;6.00;;;10.20;99.90;;;;;;5048297;28;20044;-71
2022/03/14 08:46:23;;;;;;;7.75;5.78;;;10.20;99.90;;;;;;5066095;28;20512;-71
2022/03/14 08:48:49;;;;;;;8.65;6.50;;;10.20;99.90;;;;;;5062744;28;20071;-72
2022/03/14 08:51:15;;;;;;;8.75;6.50;;;10.20;99.90;;;;;;5067581;28;20032;-71
2022/03/14 08:53:41;;;;;;;9.07;6.70;;;10.20;99.90;;;;;;5060905;28;20064;-72
2022/03/14 08:56:07;;;;;;;8.18;6.32;;;10.10;99.90;;;;;;5066956;28;20041;-72
2022/03/14 08:58:33;;;;;;;8.30;6.53;;;10.20;99.90;;;;;;5062742;28;20048;-72
2022/03/14 09:00:59;;;;;;;9.25;6.57;;;10.20;99.90;;;;;;5070653;28;20041;-72
2022/03/14 09:03:28;;;;;;;8.95;6.55;;;10.20;99.90;;;;;;5058052;28;20457;-73
2022/03/14 09:05:57;;;;;;;7.68;6.35;;;11.00;99.90;;;;;;5064854;28;20041;-72
2022/03/14 09:08:24;;;;;;;8.00;6.38;;;10.30;99.90;;;;;;5066011;28;20081;-72
2022/03/14 09:10:50;;;;;;;9.95;6.25;;;10.80;99.90;;;;;;5065520;28;20067;-72
2022/03/14 09:13:17;;;;;;;10.07;6.38;;;10.40;99.90;;;;;;5064972;28;20041;-72
2022/03/14 09:15:43;;;;;;;9.32;7.05;;;10.40;99.90;;;;;;5066087;28;20044;-70
2022/03/14 09:18:09;;;;;;;8.63;6.22;;;10.50;99.90;;;;;;5062387;28;20036;-72
2022/03/14 09:20:38;;;;;;;8.48;6.75;;;10.50;99.90;;;;;;5063619;28;20166;-72
2022/03/14 09:23:04;;;;;;;8.68;6.70;;;10.50;99.90;;;;;;5064526;28;20041;-71
2022/03/14 09:25:30;;;;;;;9.50;6.70;;;10.50;99.90;;;;;;5066258;28;20055;-73
2022/03/14 09:27:56;;;;;;;9.45;6.60;;;10.60;99.90;;;;;;5065874;28;20438;-70
2022/03/14 09:30:23;;;;;;;9.38;7.03;;;11.50;99.90;;;;;;5068438;28;20044;-70
2022/03/14 09:32:49;;;;;;;9.38;6.78;;;10.70;99.90;;;;;;5065076;28;20067;-72
2022/03/14 09:35:15;;;;;;;9.05;6.55;;;10.70;99.90;;;;;;5054511;28;20512;-71
2022/03/14 09:37:42;;;;;;;9.02;6.65;;;11.20;99.90;;;;;;5046613;28;20048;-72
2022/03/14 09:40:10;;;;;;;9.82;7.43;;;10.70;99.90;;;;;;5046952;28;20505;-71
2022/03/14 09:42:38;;;;;;;9.52;7.38;;;10.70;99.90;;;;;;5064319;28;20084;-71
2022/03/14 09:45:06;;;;;;;12.05;8.07;;;10.70;99.90;;;;;;5055458;28;20051;-71
2022/03/14 09:47:43;;;;;;;8.85;7.18;;;10.70;99.90;;;;;;5057216;28;20044;-71
2022/03/14 09:50:12;;;;;;;11.30;7.50;;;10.70;99.90;;;;;;5064836;28;20072;-71
2022/03/14 09:52:40;;;;;;;9.55;7.88;;;10.60;99.90;;;;;;5066042;28;20147;-71
2022/03/14 09:55:07;;;;;;;9.77;7.70;;;10.70;99.90;;;;;;5066515;28;20048;-71
2022/03/14 09:57:35;;;;;;;10.05;8.30;;;10.70;99.90;;;;;;5064601;28;20048;-71
2022/03/14 10:00:00;;;;;;;11.27;8.43;;;10.60;99.90;;;;;;5082510;28;20052;-71
2022/03/14 10:02:27;;;;;;;10.07;8.25;;;10.60;99.90;;;;;;5066822;28;20079;-72
2022/03/14 10:04:53;;;;;;;11.30;9.05;;;10.60;99.90;;;;;;5069248;28;20443;-72
2022/03/14 10:07:21;;;;;;;11.82;9.60;;;10.50;99.90;;;;;;5069229;28;20068;-72
2022/03/14 10:09:47;;;;;;;12.73;9.45;;;10.50;99.90;;;;;;5063359;28;20485;-72
2022/03/14 10:12:17;;;;;;;15.55;10.68;;;10.50;99.90;;;;;;5054900;28;20055;-72
2022/03/14 10:14:43;;;;;;;15.68;11.98;;;10.50;99.90;;;;;;5067347;28;20044;-71
2022/03/14 10:17:10;;;;;;;16.63;12.07;;;10.50;99.90;;;;;;5068782;28;20052;-71
2022/03/14 10:19:36;;;;;;;18.10;12.73;;;10.50;99.90;;;;;;5069716;28;20048;-72
2022/03/14 10:22:16;;;;;;;21.25;13.93;;;11.20;99.90;;;;;;5067607;28;20446;-71
2022/03/14 10:24:44;;;;;;;20.52;14.88;;;10.50;99.90;;;;;;5060712;28;20045;-73
2022/03/14 10:27:12;;;;;;;21.08;14.82;;;11.70;99.90;;;;;;5059523;28;20435;-72
2022/03/14 10:29:37;;;;;;;21.85;14.70;;;10.40;99.90;;;;;;5048862;28;20041;-73
2022/03/14 10:32:29;;;;;;;19.77;13.10;;;10.40;99.90;;;;;;5048984;28;20045;-71
2022/03/14 10:35:05;;;;;;;20.73;14.25;;;10.80;99.90;;;;;;5053689;28;20106;-71
2022/03/14 10:37:35;;;;;;;19.30;13.50;;;10.40;99.90;;;;;;5066855;28;20107;-71
2022/03/14 10:40:04;;;;;;;21.38;13.75;;;10.30;99.90;;;;;;5068604;28;20048;-71
2022/03/14 10:42:39;;;;;;;20.95;13.40;;;10.40;99.90;;;;;;5069087;28;20036;-72
2022/03/14 10:45:11;;;;;;;21.15;12.68;;;10.40;99.90;;;;;;5068367;28;20062;-70
2022/03/14 10:47:43;;;;;;;20.80;12.77;;;10.50;99.90;;;;;;5066879;28;20036;-72
2022/03/14 10:50:10;;;;;;;18.30;9.88;;;10.50;99.90;;;;;;5068130;28;20083;-73
2022/03/14 10:52:36;;;;;;;21.10;11.25;;;10.60;99.90;;;;;;5066647;28;20048;-72
2022/03/14 10:55:12;;;;;;;22.80;11.38;;;11.30;99.90;;;;;;5069973;28;20481;-71
2022/03/14 10:57:47;;;;;;;17.95;10.52;;;10.60;99.90;;;;;;5065815;28;20469;-72
2022/03/14 11:00:13;;;;;;;19.97;11.27;;;10.50;99.90;;;;;;5069760;28;20044;-70
2022/03/14 11:02:38;;;;;;;20.13;10.63;;;10.60;99.90;;;;;;5067590;28;20050;-70
2022/03/14 11:05:09;;;;;;;18.58;10.63;;;10.60;99.90;;;;;;5069425;28;20044;-71
2022/03/14 11:07:35;;;;;;;18.23;9.98;;;10.60;99.90;;;;;;5051118;28;20194;-73
2022/03/14 11:10:04;;;;;;;20.60;10.23;;;10.60;99.90;;;;;;5067376;28;20047;-71
2022/03/14 11:12:31;;;;;;;19.98;10.40;;;10.50;99.90;;;;;;5066346;28;20043;-71
2022/03/14 11:15:07;;;;;;;19.30;9.07;;;10.50;99.90;;;;;;5068944;28;20044;-72
2022/03/14 11:17:37;;;;;;;17.73;8.63;;;10.60;99.90;;;;;;5066185;28;20044;-71
2022/03/14 11:20:03;;;;;;;25.65;10.25;;;10.60;99.90;;;;;;5068374;28;20560;-72
2022/03/14 11:22:31;;;;;;;22.25;9.48;;;10.70;99.90;;;;;;5067617;28;20052;-70
2022/03/14 11:24:59;;;;;;;21.40;9.50;;;10.50;99.90;;;;;;5067499;28;20044;-72
2022/03/14 11:27:28;;;;;;;21.23;8.95;;;10.60;99.90;;;;;;5068915;28;20048;-71
2022/03/14 11:30:08;;;;;;;20.52;8.48;;;10.70;99.90;;;;;;5069759;28;20067;-71
2022/03/14 11:32:36;;;;;;;16.80;8.50;;;10.80;99.90;;;;;;5066382;28;20040;-71
2022/03/14 11:35:03;;;;;;;19.88;9.18;;;10.80;99.90;;;;;;5068244;28;20056;-71
2022/03/14 11:37:31;;;;;;;18.27;8.57;;;10.70;99.90;;;;;;5067391;28;20047;-72
2022/03/14 11:40:01;;;;;;;23.13;8.85;;;10.60;99.90;;;;;;5067758;28;20044;-70
2022/03/14 11:42:30;;;;;;;18.95;8.90;;;10.70;99.90;;;;;;5067684;28;20051;-71
2022/03/14 11:44:57;;;;;;;20.83;9.60;;;11.90;99.90;;;;;;5058348;28;20056;-71
2022/03/14 11:47:23;;;;;;;20.63;9.38;;;10.70;99.90;;;;;;5050198;28;20049;-72
2022/03/14 11:49:50;;;;;;;23.10;10.18;;;10.70;99.90;;;;;;5060537;28;20417;-71
2022/03/14 11:52:21;;;;;;;20.10;9.07;;;10.70;99.90;;;;;;5065566;28;20063;-71
2022/03/14 11:54:58;;;;;;;18.00;8.70;;;10.80;99.90;;;;;;5065109;28;20052;-71
2022/03/14 11:57:38;;;;;;;17.35;7.65;;;10.90;99.90;;;;;;5065796;28;20413;-71
2022/03/14 12:00:21;;;;;;;16.05;7.18;;;11.00;99.90;;;;;;5069335;28;20040;-71
2022/03/14 12:03:33;;;;;;;17.73;7.05;;;11.00;99.90;;;;;;5068315;28;20053;-70
2022/03/14 12:05:59;;;;;;;15.93;7.28;;;11.00;99.90;;;;;;5063487;28;20052;-70
2022/03/14 12:08:24;;;;;;;18.08;6.78;;;11.00;99.90;;;;;;5063622;28;20141;-69
2022/03/14 12:10:50;;;;;;;18.05;7.63;;;12.20;99.90;;;;;;5064833;28;20131;-69
2022/03/14 12:13:42;;;;;;;15.18;8.10;;;10.90;99.90;;;;;;5064095;28;20319;-70
2022/03/14 12:16:47;;;;;;;17.85;8.40;;;10.80;99.90;;;;;;5060090;28;20048;-69
2022/03/14 12:19:38;;;;;;;19.17;8.77;;;10.90;99.90;;;;;;5062830;28;20052;-69
2022/03/14 12:22:06;;;;;;;16.67;8.48;;;10.90;99.90;;;;;;5062908;28;20043;-69
2022/03/14 12:24:37;;;;;;;20.25;9.32;;;10.90;99.90;;;;;;5064421;28;20397;-69
2022/03/14 12:27:34;;;;;;;21.98;9.93;;;11.00;99.90;;;;;;5064588;28;20143;-69
2022/03/14 12:30:22;;;;;;;;;;;11.50;99.90;;;;;;5044185;28;20103;-69
2022/03/14 12:32:52;;;;;;;21.60;10.13;;;10.90;99.90;;;;;;5036068;28;19920;-69
2022/03/14 12:35:22;;;;;;;19.65;11.18;;;11.00;99.90;;;;;;5054421;28;20456;-69
2022/03/14 12:38:15;;;;;;;19.20;10.25;;;10.90;99.90;;;;;;5063625;28;20899;-70
2022/03/14 12:40:46;;;;;;;22.02;10.48;;;10.90;99.90;;;;;;5063321;28;20082;-69
2022/03/14 12:43:38;;;;;;;19.98;10.25;;;11.10;99.90;;;;;;5064530;28;20109;-70